createdAt,value
2023-11-07T00:00:16.997Z,97431.88
2023-11-07T00:03:18.839Z,97431.00
2023-11-07T00:06:22.326Z,97437.53
2023-11-07T00:09:24.276Z,97434.94
2023-11-07T00:12:26.128Z,97447.47
2023-11-07T00:15:28.034Z,97448.41
2023-11-07T00:18:29.971Z,97448.59
2023-11-07T00:21:33.878Z,97437.53
2023-11-07T00:24:35.716Z,97459.66
2023-11-07T00:27:37.714Z,97456.16
2023-11-07T00:30:39.626Z,97463.22
2023-11-07T00:33:41.684Z,97461.53
2023-11-07T00:36:45.182Z,97465.13
2023-11-07T00:39:46.975Z,97464.19
2023-11-07T00:42:48.687Z,97469.34
2023-11-07T00:45:50.760Z,97470.13
2023-11-07T00:48:52.771Z,97476.97
2023-11-07T00:51:56.192Z,97469.94
2023-11-07T00:54:58.043Z,97468.03
2023-11-07T00:57:59.960Z,97479.28
2023-11-07T01:01:02.047Z,97491.53
2023-11-07T01:04:04.076Z,97488.97
2023-11-07T01:07:07.686Z,97490.88
2023-11-07T01:10:09.664Z,97500.38
2023-11-07T01:13:11.375Z,97501.31
2023-11-07T01:16:13.385Z,97498.75
2023-11-07T01:19:16.652Z,97499.63
2023-11-07T01:22:21.585Z,97504.06
2023-11-07T01:25:23.512Z,97491.19
2023-11-07T01:28:26.664Z,97501.66
2023-11-07T01:31:28.453Z,97506.56
2023-11-07T01:34:30.301Z,97511.97
2023-11-07T01:37:33.687Z,97512.28
2023-11-07T01:40:35.474Z,97522.72
2023-11-07T01:43:39.020Z,97509.31
2023-11-07T01:46:40.785Z,97518.63
2023-11-07T01:49:43.316Z,97514.25
2023-11-07T01:52:46.513Z,97520.75
2023-11-07T01:55:48.335Z,97517.22
2023-11-07T01:58:50.501Z,97516.66
2023-11-07T02:01:53.618Z,97519.34
2023-11-07T02:04:55.378Z,97523.97
2023-11-07T02:07:59.593Z,97523.03
2023-11-07T02:11:01.582Z,97528.25
2023-11-07T02:14:03.448Z,97529.13
2023-11-07T02:17:09.946Z,97516.88
2023-11-07T02:20:12.516Z,97532.91
2023-11-07T02:23:23.242Z,97539.94
2023-11-07T02:26:24.961Z,97535.38
2023-11-07T02:29:26.714Z,97544.28
2023-11-07T02:32:28.624Z,97531.94
2023-11-07T02:35:30.613Z,97527.59
2023-11-07T02:38:33.796Z,97536.41
2023-11-07T02:41:35.745Z,97533.06
2023-11-07T02:44:38.445Z,97527.84
2023-11-07T02:47:42.937Z,97540.41
2023-11-07T02:50:45.963Z,97533.38
2023-11-07T02:53:54.599Z,97548.38
2023-11-07T02:56:57.045Z,97542.13
2023-11-07T02:59:58.896Z,97555.41
2023-11-07T03:03:00.980Z,97543.84
2023-11-07T03:06:03.293Z,97547.28
2023-11-07T03:09:06.623Z,97543.34
2023-11-07T03:12:11.697Z,97551.22
2023-11-07T03:15:14.841Z,97536.94
2023-11-07T03:18:16.779Z,97545.69
2023-11-07T03:21:20.444Z,97545.53
2023-11-07T03:24:23.852Z,97536.69
2023-11-07T03:27:26.109Z,97530.88
2023-11-07T03:30:28.984Z,97527.28
2023-11-07T03:33:30.896Z,97537.50
2023-11-07T03:36:32.939Z,97523.94
2023-11-07T03:39:36.172Z,97538.59
2023-11-07T03:42:38.195Z,97526.09
2023-11-07T03:45:39.908Z,97531.34
2023-11-07T03:48:41.713Z,97522.59
2023-11-07T03:51:43.511Z,97531.41
2023-11-07T03:54:46.788Z,97534.22
2023-11-07T03:57:48.581Z,97528.59
2023-11-07T04:00:50.253Z,97537.16
2023-11-07T04:03:52.404Z,97547.09
2023-11-07T04:06:54.768Z,97546.06
2023-11-07T04:09:58.022Z,97538.00
2023-11-07T04:13:00.627Z,97539.13
2023-11-07T04:16:04.085Z,97542.97
2023-11-07T04:19:05.949Z,97548.81
2023-11-07T04:22:09.006Z,97549.88
2023-11-07T04:25:12.388Z,97552.53
2023-11-07T04:28:14.120Z,97558.41
2023-11-07T04:31:16.032Z,97554.81
2023-11-07T04:34:18.385Z,97556.25
2023-11-07T04:37:20.284Z,97565.72
2023-11-07T04:40:23.543Z,97562.03
2023-11-07T04:43:27.226Z,97557.56
2023-11-07T04:46:29.134Z,97558.41
2023-11-07T04:49:31.294Z,97560.31
2023-11-07T04:52:34.966Z,97569.06
2023-11-07T04:55:38.226Z,97567.88
2023-11-07T04:58:56.481Z,97567.69
2023-11-07T05:02:01.140Z,97576.22
2023-11-07T05:05:05.378Z,97568.72
2023-11-07T05:08:08.025Z,97573.28
2023-11-07T05:11:13.551Z,97570.13
2023-11-07T05:14:16.216Z,97560.66
2023-11-07T05:17:17.986Z,97573.88
2023-11-07T05:20:19.748Z,97570.72
2023-11-07T05:23:23.761Z,97577.97
2023-11-07T05:26:26.945Z,97565.78
2023-11-07T05:29:28.709Z,97573.09
2023-11-07T05:32:30.653Z,97576.66
2023-11-07T05:35:32.810Z,97579.41
2023-11-07T05:38:35.373Z,97572.38
2023-11-07T05:41:38.781Z,97574.16
2023-11-07T05:44:40.736Z,97584.22
2023-11-07T05:47:42.768Z,97588.50
2023-11-07T05:50:44.926Z,97585.06
2023-11-07T05:53:47.088Z,97588.31
2023-11-07T05:56:50.287Z,97598.94
2023-11-07T05:59:52.845Z,97591.91
2023-11-07T06:02:54.881Z,97599.28
2023-11-07T06:05:57.142Z,97592.31
2023-11-07T06:08:59.143Z,97602.09
2023-11-07T06:12:02.504Z,97598.75
2023-11-07T06:15:04.950Z,97605.09
2023-11-07T06:18:07.971Z,97599.16
2023-11-07T06:21:11.986Z,97607.28
2023-11-07T06:24:13.759Z,97598.53
2023-11-07T06:27:17.086Z,97607.44
2023-11-07T06:30:19.578Z,97606.50
2023-11-07T06:33:21.668Z,97611.13
2023-11-07T06:36:25.424Z,97615.63
2023-11-07T06:39:28.644Z,97621.81
2023-11-07T06:42:31.809Z,97622.75
2023-11-07T06:45:33.665Z,97624.47
2023-11-07T06:48:35.747Z,97627.94
2023-11-07T06:51:37.670Z,97623.38
2023-11-07T06:54:39.434Z,97629.47
2023-11-07T06:57:43.320Z,97626.03
2023-11-07T07:00:45.694Z,97627.94
2023-11-07T07:03:47.596Z,97629.66
2023-11-07T07:06:49.643Z,97636.81
2023-11-07T07:09:51.591Z,97632.22
2023-11-07T07:12:57.677Z,97626.91
2023-11-07T07:16:01.150Z,97641.13
2023-11-07T07:19:07.883Z,97627.69
2023-11-07T07:22:10.346Z,97639.94
2023-11-07T07:25:21.966Z,97640.78
2023-11-07T07:28:26.977Z,97639.00
2023-11-07T07:31:34.565Z,97647.91
2023-11-07T07:34:36.452Z,97645.16
2023-11-07T07:37:38.375Z,97645.13
2023-11-07T07:40:40.306Z,97643.16
2023-11-07T07:43:46.081Z,97649.16
2023-11-07T07:46:49.806Z,97639.28
2023-11-07T07:49:51.808Z,97642.81
2023-11-07T07:52:57.615Z,97649.78
2023-11-07T07:55:59.701Z,97650.56
2023-11-07T07:59:06.648Z,97648.50
2023-11-07T08:02:08.848Z,97646.63
2023-11-07T08:05:15.864Z,97651.88
2023-11-07T08:08:18.053Z,97650.75
2023-11-07T08:11:19.904Z,97659.69
2023-11-07T08:14:24.034Z,97662.34
2023-11-07T08:17:26.046Z,97664.13
2023-11-07T08:20:27.872Z,97661.47
2023-11-07T08:23:30.273Z,97670.50
2023-11-07T08:26:34.275Z,97673.19
2023-11-07T08:29:37.576Z,97674.09
2023-11-07T08:32:39.648Z,97679.41
2023-11-07T08:35:41.757Z,97679.31
2023-11-07T08:38:44.124Z,97676.66
2023-11-07T08:41:46.079Z,97680.94
2023-11-07T08:44:49.328Z,97679.91
2023-11-07T08:47:52.534Z,97678.03
2023-11-07T08:50:54.569Z,97684.16
2023-11-07T08:53:57.631Z,97689.47
2023-11-07T08:56:59.466Z,97687.41
2023-11-07T09:00:02.995Z,97678.41
2023-11-07T09:03:04.899Z,97673.00
2023-11-07T09:06:06.869Z,97677.63
2023-11-07T09:09:09.566Z,97689.22
2023-11-07T09:12:11.701Z,97683.97
2023-11-07T09:15:15.107Z,97691.19
2023-11-07T09:18:17.240Z,97698.22
2023-11-07T09:21:19.271Z,97685.69
2023-11-07T09:24:22.018Z,97695.38
2023-11-07T09:27:24.439Z,97693.69
2023-11-07T09:30:27.983Z,97704.13
2023-11-07T09:33:31.264Z,97707.56
2023-11-07T09:36:33.132Z,97703.97
2023-11-07T09:39:35.270Z,97708.38
2023-11-07T09:42:37.241Z,97714.47
2023-11-07T09:45:41.042Z,97713.44
2023-11-07T09:48:43.394Z,97705.47
2023-11-07T09:51:48.267Z,97713.06
2023-11-07T09:54:51.227Z,97708.28
2023-11-07T09:58:05.299Z,97708.13
2023-11-07T10:01:17.105Z,97699.13
2023-11-07T10:04:22.014Z,97709.59
2023-11-07T10:07:25.190Z,97710.25
2023-11-07T10:10:27.982Z,97704.00
2023-11-07T10:13:30.677Z,97712.69
2023-11-07T10:16:37.790Z,97703.78
2023-11-07T10:19:40.122Z,97701.09
2023-11-07T10:22:45.094Z,97704.63
2023-11-07T10:25:53.047Z,97707.28
2023-11-07T10:29:04.996Z,97713.28
2023-11-07T10:32:11.535Z,97704.22
2023-11-07T10:35:16.185Z,97712.78
2023-11-07T10:38:19.957Z,97699.41
2023-11-07T10:41:27.677Z,97707.16
2023-11-07T10:44:30.967Z,97706.03
2023-11-07T10:47:35.575Z,97708.41
2023-11-07T10:50:39.043Z,97702.34
2023-11-07T10:53:43.177Z,97696.16
2023-11-07T10:56:46.054Z,97696.16
2023-11-07T10:59:49.544Z,97692.66
2023-11-07T11:02:55.804Z,97693.91
2023-11-07T11:05:58.550Z,97691.88
2023-11-07T11:09:01.862Z,97689.72
2023-11-07T11:12:04.653Z,97679.84
2023-11-07T11:15:10.736Z,97679.84
2023-11-07T11:18:19.514Z,97691.00
2023-11-07T11:21:26.575Z,97690.41
2023-11-07T11:24:35.704Z,97685.00
2023-11-07T11:27:38.436Z,97684.22
2023-11-07T11:30:41.781Z,97684.16
2023-11-07T11:33:48.043Z,97683.97
2023-11-07T11:36:53.893Z,97673.31
2023-11-07T11:39:55.759Z,97675.81
2023-11-07T11:43:06.932Z,97679.94
2023-11-07T11:46:28.443Z,97679.75
2023-11-07T11:49:33.261Z,97681.19
2023-11-07T11:52:35.919Z,97685.66
2023-11-07T11:55:57.539Z,97672.44
2023-11-07T11:59:10.572Z,97677.84
2023-11-07T12:02:13.328Z,97665.19
2023-11-07T12:05:22.616Z,97675.84
2023-11-07T12:08:36.665Z,97664.44
2023-11-07T12:11:45.899Z,97665.88
2023-11-07T12:14:55.026Z,97661.22
2023-11-07T12:18:00.602Z,97657.09
2023-11-07T12:21:08.149Z,97655.75
2023-11-07T12:24:12.172Z,97654.41
2023-11-07T12:27:20.774Z,97661.97
2023-11-07T12:30:26.315Z,97653.97
2023-11-07T12:33:41.926Z,97658.88
2023-11-07T12:36:45.510Z,97642.41
2023-11-07T12:39:49.537Z,97644.28
2023-11-07T12:42:54.553Z,97639.84
2023-11-07T12:46:09.637Z,97641.44
2023-11-07T12:49:17.722Z,97643.25
2023-11-07T12:52:21.951Z,97642.22
2023-11-07T12:55:28.057Z,97647.44
2023-11-07T12:58:32.012Z,97646.41
2023-11-07T13:01:37.342Z,97646.28
2023-11-07T13:04:41.288Z,97639.66
2023-11-07T13:07:44.769Z,97638.63
2023-11-07T13:10:46.656Z,97625.47
2023-11-07T13:13:51.056Z,97633.22
2023-11-07T13:16:53.237Z,97634.56
2023-11-07T13:19:57.644Z,97636.81
2023-11-07T13:23:01.076Z,97631.59
2023-11-07T13:26:04.081Z,97627.81
2023-11-07T13:29:07.956Z,97638.88
2023-11-07T13:32:10.165Z,97636.91
2023-11-07T13:35:13.628Z,97635.03
2023-11-07T13:38:26.516Z,97648.00
2023-11-07T13:41:28.756Z,97648.75
2023-11-07T13:44:34.836Z,97648.00
2023-11-07T13:47:44.679Z,97658.41
2023-11-07T13:50:54.304Z,97652.19
2023-11-07T13:53:57.910Z,97646.78
2023-11-07T13:57:02.463Z,97656.16
2023-11-07T14:00:12.590Z,97652.28
2023-11-07T14:03:16.208Z,97651.19
2023-11-07T14:06:19.188Z,97654.16
2023-11-07T14:09:24.040Z,97655.47
2023-11-07T14:12:29.553Z,97659.06
2023-11-07T14:15:38.353Z,97650.75
2023-11-07T14:18:46.926Z,97651.00
2023-11-07T14:21:53.108Z,97653.50
2023-11-07T14:25:03.030Z,97651.50
2023-11-07T14:28:10.434Z,97651.50
2023-11-07T14:31:13.052Z,97670.03
2023-11-07T14:34:15.130Z,97656.41
2023-11-07T14:37:17.409Z,97666.88
2023-11-07T14:40:22.761Z,97664.91
2023-11-07T14:43:24.580Z,97670.81
2023-11-07T14:46:26.901Z,97665.66
2023-11-07T14:49:29.751Z,97672.03
2023-11-07T14:52:31.595Z,97672.97
2023-11-07T14:55:36.134Z,97678.44
2023-11-07T14:58:39.387Z,97678.31
2023-11-07T15:01:41.188Z,97682.47
2023-11-07T15:04:43.933Z,97687.97
2023-11-07T15:07:45.820Z,97683.50
2023-11-07T15:10:49.436Z,97687.34
2023-11-07T15:13:56.871Z,97689.59
2023-11-07T15:16:59.250Z,97692.25
2023-11-07T15:20:01.160Z,97690.63
2023-11-07T15:23:03.721Z,97693.19
2023-11-07T15:26:06.951Z,97693.09
2023-11-07T15:29:09.742Z,97692.94
2023-11-07T15:32:14.460Z,97695.50
2023-11-07T15:35:16.589Z,97692.06
2023-11-07T15:38:18.598Z,97686.22
2023-11-07T15:41:22.116Z,97693.50
2023-11-07T15:44:24.439Z,97687.41
2023-11-07T15:47:26.473Z,97680.47
2023-11-07T15:50:28.726Z,97686.94
2023-11-07T15:53:31.269Z,97694.16
2023-11-07T15:56:38.437Z,97703.44
2023-11-07T15:59:40.356Z,97698.66
2023-11-07T16:02:45.040Z,97704.13
2023-11-07T16:05:47.313Z,97704.94
2023-11-07T16:08:49.252Z,97713.06
2023-11-07T16:11:52.719Z,97718.03
2023-11-07T16:14:54.817Z,97722.59
2023-11-07T16:17:56.945Z,97721.84
2023-11-07T16:20:59.517Z,97724.09
2023-11-07T16:24:01.415Z,97732.38
2023-11-07T16:27:09.447Z,97735.91
2023-11-07T16:30:12.389Z,97736.13
2023-11-07T16:33:16.231Z,97747.84
2023-11-07T16:36:18.093Z,97739.38
2023-11-07T16:39:20.193Z,97737.09
2023-11-07T16:42:26.817Z,97752.66
2023-11-07T16:45:30.173Z,97741.59
2023-11-07T16:48:33.098Z,97744.47
2023-11-07T16:51:35.993Z,97748.41
2023-11-07T16:54:41.940Z,97744.97
2023-11-07T16:57:48.595Z,97746.94
2023-11-07T17:00:50.857Z,97735.44
2023-11-07T17:03:54.763Z,97736.25
2023-11-07T17:06:56.591Z,97742.72
2023-11-07T17:09:58.541Z,97743.56
2023-11-07T17:13:02.513Z,97747.72
2023-11-07T17:16:05.041Z,97756.84
2023-11-07T17:19:07.119Z,97762.78
2023-11-07T17:22:10.909Z,97759.41
2023-11-07T17:25:14.607Z,97767.00
2023-11-07T17:28:20.525Z,97757.38
2023-11-07T17:31:22.695Z,97760.13
2023-11-07T17:34:24.715Z,97766.59
2023-11-07T17:37:29.703Z,97769.53
2023-11-07T17:40:32.148Z,97771.00
2023-11-07T17:43:35.486Z,97771.81
2023-11-07T17:46:37.389Z,97783.38
2023-11-07T17:49:39.090Z,97778.94
2023-11-07T17:52:42.795Z,97784.16
2023-11-07T17:55:44.869Z,97781.59
2023-11-07T17:58:48.223Z,97781.44
2023-11-07T18:01:50.083Z,97775.41
2023-11-07T18:04:52.190Z,97771.31
2023-11-07T18:07:54.261Z,97774.91
2023-11-07T18:11:02.979Z,97775.06
2023-11-07T18:14:06.237Z,97778.63
2023-11-07T18:17:08.480Z,97768.00
2023-11-07T18:20:14.668Z,97785.38
2023-11-07T18:23:16.486Z,97776.78
2023-11-07T18:26:22.362Z,97776.19
2023-11-07T18:29:26.473Z,97780.78
2023-11-07T18:32:29.071Z,97778.75
2023-11-07T18:35:31.074Z,97786.72
2023-11-07T18:38:33.056Z,97787.59
2023-11-07T18:41:34.826Z,97790.22
2023-11-07T18:44:41.636Z,97794.53
2023-11-07T18:47:44.801Z,97792.03
2023-11-07T18:50:48.057Z,97798.41
2023-11-07T18:53:52.560Z,97799.47
2023-11-07T18:56:58.182Z,97794.69
2023-11-07T19:00:02.127Z,97798.00
2023-11-07T19:03:04.349Z,97797.84
2023-11-07T19:06:06.397Z,97795.13
2023-11-07T19:09:12.536Z,97795.97
2023-11-07T19:12:15.171Z,97796.13
2023-11-07T19:15:18.699Z,97794.25
2023-11-07T19:18:20.481Z,97798.63
2023-11-07T19:21:22.832Z,97792.53
2023-11-07T19:24:24.751Z,97787.31
2023-11-07T19:27:26.933Z,97787.44
2023-11-07T19:30:30.582Z,97787.81
2023-11-07T19:33:32.635Z,97789.53
2023-11-07T19:36:38.064Z,97784.38
2023-11-07T19:39:39.992Z,97786.16
2023-11-07T19:42:46.150Z,97787.06
2023-11-07T19:45:49.485Z,97784.50
2023-11-07T19:48:53.023Z,97791.81
2023-11-07T19:51:56.423Z,97798.91
2023-11-07T19:54:58.341Z,97802.28
2023-11-07T19:58:01.448Z,97796.81
2023-11-07T20:01:04.777Z,97802.13
2023-11-07T20:04:06.979Z,97805.16
2023-11-07T20:07:09.146Z,97803.34
2023-11-07T20:10:12.393Z,97801.75
2023-11-07T20:13:14.936Z,97802.13
2023-11-07T20:16:19.350Z,97794.66
2023-11-07T20:19:21.154Z,97795.50
2023-11-07T20:22:23.081Z,97794.53
2023-11-07T20:25:24.848Z,97794.81
2023-11-07T20:28:26.841Z,97797.81
2023-11-07T20:31:30.234Z,97802.50
2023-11-07T20:34:34.061Z,97801.63
2023-11-07T20:37:35.798Z,97802.41
2023-11-07T20:40:40.347Z,97801.50
2023-11-07T20:43:42.610Z,97803.06
2023-11-07T20:46:45.895Z,97790.53
2023-11-07T20:49:50.556Z,97784.94
2023-11-07T20:52:52.914Z,97794.91
2023-11-07T20:55:54.907Z,97794.25
2023-11-07T20:58:57.419Z,97790.94
2023-11-07T21:02:00.560Z,97790.34
2023-11-07T21:05:02.315Z,97796.53
2023-11-07T21:08:04.219Z,97808.38
2023-11-07T21:11:06.818Z,97806.56
2023-11-07T21:14:11.367Z,97790.38
2023-11-07T21:17:14.620Z,97797.41
2023-11-07T21:20:16.846Z,97780.91
2023-11-07T21:23:18.818Z,97787.66
2023-11-07T21:26:22.747Z,97797.16
2023-11-07T21:29:24.795Z,97791.69
2023-11-07T21:32:28.822Z,97788.19
2023-11-07T21:35:30.662Z,97795.28
2023-11-07T21:38:32.565Z,97788.31
2023-11-07T21:41:34.329Z,97787.50
2023-11-07T21:44:36.389Z,97787.09
2023-11-07T21:47:39.719Z,97793.13
2023-11-07T21:50:42.069Z,97784.28
2023-11-07T21:53:43.868Z,97788.09
2023-11-07T21:56:45.560Z,97793.25
2023-11-07T21:59:47.472Z,97799.31
2023-11-07T22:02:51.132Z,97794.25
2023-11-07T22:05:52.983Z,97798.00
2023-11-07T22:08:54.820Z,97793.41
2023-11-07T22:11:56.712Z,97807.81
2023-11-07T22:14:59.701Z,97803.34
2023-11-07T22:18:02.965Z,97797.50
2023-11-07T22:21:04.916Z,97806.16
2023-11-07T22:24:07.307Z,97808.81
2023-11-07T22:27:10.504Z,97803.34
2023-11-07T22:30:13.510Z,97811.97
2023-11-07T22:33:16.843Z,97818.00
2023-11-07T22:36:18.702Z,97811.75
2023-11-07T22:39:20.487Z,97794.25
2023-11-07T22:42:22.278Z,97801.09
2023-11-07T22:45:24.155Z,97805.47
2023-11-07T22:48:30.808Z,97801.66
2023-11-07T22:51:33.435Z,97807.91
2023-11-07T22:54:35.322Z,97799.00
2023-11-07T22:57:37.120Z,97803.38
2023-11-07T23:00:41.800Z,97803.44
2023-11-07T23:03:46.388Z,97800.09
2023-11-07T23:06:48.454Z,97794.13
2023-11-07T23:09:50.725Z,97799.50
2023-11-07T23:12:52.676Z,97802.84
2023-11-07T23:15:54.704Z,97805.47
2023-11-07T23:18:57.769Z,97804.66
2023-11-07T23:21:59.647Z,97806.31
2023-11-07T23:25:02.251Z,97791.19
2023-11-07T23:28:05.361Z,97797.44
2023-11-07T23:31:08.199Z,97804.47
2023-11-07T23:34:11.597Z,97799.84
2023-11-07T23:37:14.081Z,97791.97
2023-11-07T23:40:15.888Z,97787.69
2023-11-07T23:43:17.821Z,97794.47
2023-11-07T23:46:19.875Z,97794.63
2023-11-07T23:49:22.972Z,97791.13
2023-11-07T23:52:24.657Z,97784.88
2023-11-07T23:55:26.932Z,97790.19
2023-11-07T23:58:28.562Z,97778.69
